Time;durP1;ratioP1;P1;durP2;ratioP2;P2;SDS_P1;SDS_P2;PMS_P1;PMS_P2;Temp;Humidity;BMP_temperature;BMP_pressure;BME280_temperature;BME280_humidity;BME280_pressure;Samples;Min_cycle;Max_cycle;Signal;HPM_P1;HPM_P2
2023/03/12 00:02:00;;;;;;;14.07;4.50;;;0.90;99.90;;;;;;4992280;28;20490;-46
2023/03/12 00:04:26;;;;;;;10.57;4.70;;;0.90;99.90;;;;;;4992443;28;20045;-48
2023/03/12 00:06:52;;;;;;;12.07;5.20;;;0.90;99.90;;;;;;4989353;28;20117;-49
2023/03/12 00:09:17;;;;;;;13.18;4.47;;;0.80;99.90;;;;;;4992307;28;20113;-47
2023/03/12 00:11:43;;;;;;;10.52;5.22;;;0.90;99.90;;;;;;4992004;28;20133;-49
2023/03/12 00:14:09;;;;;;;11.80;4.72;;;0.80;99.90;;;;;;4992153;28;20038;-48
2023/03/12 00:16:34;;;;;;;11.63;4.45;;;0.70;99.90;;;;;;4991624;28;20478;-46
2023/03/12 00:19:00;;;;;;;12.75;4.95;;;0.80;99.90;;;;;;4991360;28;20133;-46
2023/03/12 00:21:26;;;;;;;11.68;4.63;;;0.80;99.90;;;;;;4992058;28;20038;-47
2023/03/12 00:23:52;;;;;;;11.00;4.80;;;0.80;99.90;;;;;;4991553;28;20184;-48
2023/03/12 00:26:20;;;;;;;13.88;4.57;;;0.70;99.90;;;;;;4991909;28;20100;-47
2023/03/12 00:28:47;;;;;;;9.75;4.97;;;0.80;99.90;;;;;;4991674;28;20383;-47
2023/03/12 00:31:19;;;;;;;11.75;4.70;;;0.70;99.90;;;;;;4991768;28;20113;-48
2023/03/12 00:33:45;;;;;;;15.35;4.50;;;0.70;99.90;;;;;;4989864;28;20034;-46
2023/03/12 00:36:11;;;;;;;12.50;4.82;;;0.80;99.90;;;;;;4991360;28;20045;-47
2023/03/12 00:38:36;;;;;;;11.05;4.28;;;0.70;99.90;;;;;;4990283;28;20545;-45
2023/03/12 00:41:02;;;;;;;7.03;3.75;;;0.70;99.90;;;;;;4991688;28;20777;-52
2023/03/12 00:43:28;;;;;;;11.05;4.10;;;0.80;99.90;;;;;;4991568;28;20065;-49
2023/03/12 00:45:54;;;;;;;11.85;4.32;;;1.10;99.90;;;;;;4991485;28;20465;-48
2023/03/12 00:48:19;;;;;;;6.88;3.40;;;1.40;99.90;;;;;;4991419;28;20042;-48
2023/03/12 00:50:45;;;;;;;9.25;3.97;;;0.80;99.90;;;;;;4987108;28;20089;-48
2023/03/12 00:53:10;;;;;;;8.50;3.40;;;0.80;99.90;;;;;;4990883;28;20093;-46
2023/03/12 00:55:36;;;;;;;9.27;3.72;;;0.80;99.90;;;;;;4990068;28;20096;-47
2023/03/12 00:58:02;;;;;;;7.93;3.20;;;0.80;99.90;;;;;;4991126;28;20050;-46
2023/03/12 01:00:27;;;;;;;7.72;3.20;;;0.80;99.90;;;;;;4991690;28;20126;-47
2023/03/12 01:02:53;;;;;;;9.73;3.58;;;0.90;99.90;;;;;;4991138;28;20041;-47
2023/03/12 01:05:19;;;;;;;9.68;3.17;;;0.90;99.90;;;;;;4991307;28;20053;-46
2023/03/12 01:07:45;;;;;;;6.85;3.28;;;0.90;99.90;;;;;;4990939;28;20618;-49
2023/03/12 01:10:14;;;;;;;7.45;3.25;;;0.90;99.90;;;;;;4991454;28;20069;-47
2023/03/12 01:12:41;;;;;;;9.65;3.47;;;0.90;99.90;;;;;;4991016;28;20502;-50
2023/03/12 01:15:07;;;;;;;8.82;3.28;;;0.90;99.90;;;;;;4989990;28;20050;-46
2023/03/12 01:17:33;;;;;;;10.35;3.00;;;0.90;99.90;;;;;;4990660;28;20458;-47
2023/03/12 01:19:58;;;;;;;7.32;2.95;;;0.90;99.90;;;;;;4990990;28;20093;-49
2023/03/12 01:22:24;;;;;;;7.68;2.88;;;0.90;99.90;;;;;;4989483;28;20042;-46
2023/03/12 01:24:50;;;;;;;7.32;3.20;;;0.90;99.90;;;;;;4989316;28;20081;-48
2023/03/12 01:27:16;;;;;;;7.47;3.30;;;0.90;99.90;;;;;;4990790;28;20038;-50
2023/03/12 01:29:41;;;;;;;7.57;3.08;;;0.90;99.90;;;;;;4990774;28;20038;-50
2023/03/12 01:32:07;;;;;;;7.32;2.92;;;0.90;99.90;;;;;;4989279;28;20041;-46
2023/03/12 01:34:34;;;;;;;6.53;2.83;;;0.90;99.90;;;;;;4990393;28;20042;-47
2023/03/12 01:37:00;;;;;;;7.15;3.33;;;0.90;99.90;;;;;;4972558;28;20069;-46
2023/03/12 01:39:26;;;;;;;7.75;3.20;;;0.90;99.90;;;;;;4990693;28;20035;-44
2023/03/12 01:41:52;;;;;;;8.23;3.38;;;0.90;99.90;;;;;;4990394;28;20037;-48
2023/03/12 01:44:18;;;;;;;7.10;3.38;;;0.90;99.90;;;;;;4989364;28;20038;-46
2023/03/12 01:46:47;;;;;;;7.80;3.22;;;0.90;99.90;;;;;;4990424;28;20048;-46
2023/03/12 01:49:21;;;;;;;9.90;3.60;;;0.90;99.90;;;;;;4990881;28;20391;-47
2023/03/12 01:52:09;;;;;;;7.75;3.30;;;0.90;99.90;;;;;;4989642;28;20046;-48
2023/03/12 01:54:40;;;;;;;9.48;3.53;;;0.90;99.90;;;;;;4990537;28;20054;-49
2023/03/12 01:57:10;;;;;;;6.50;3.35;;;0.90;99.90;;;;;;4990258;28;20057;-46
2023/03/12 01:59:54;;;;;;;10.25;3.20;;;0.90;99.90;;;;;;4990329;28;20061;-46
2023/03/12 02:02:25;;;;;;;8.93;3.67;;;0.90;99.90;;;;;;4990521;28;20057;-44
2023/03/12 02:05:01;;;;;;;7.30;3.33;;;0.90;99.90;;;;;;4990590;28;20046;-47
2023/03/12 02:07:27;;;;;;;11.43;3.38;;;1.00;99.90;;;;;;4993258;28;20066;-47
2023/03/12 02:09:52;;;;;;;8.18;3.33;;;1.00;99.90;;;;;;4994665;28;20584;-48
2023/03/12 02:12:18;;;;;;;6.28;3.28;;;1.00;99.90;;;;;;4994185;28;20121;-47
2023/03/12 02:14:44;;;;;;;9.02;3.20;;;1.10;99.90;;;;;;4994483;28;20474;-44
2023/03/12 02:17:10;;;;;;;8.75;2.95;;;1.10;99.90;;;;;;4992344;28;20050;-47
2023/03/12 02:20:06;;;;;;;8.98;3.47;;;1.10;99.90;;;;;;4993230;28;20042;-48
2023/03/12 02:22:34;;;;;;;8.18;3.17;;;1.10;99.90;;;;;;4993476;28;20042;-49
2023/03/12 02:25:29;;;;;;;7.78;3.17;;;1.10;99.90;;;;;;4994000;28;20049;-49
2023/03/12 02:27:59;;;;;;;;;;;1.10;99.90;;;;;;4979782;28;20042;-50
2023/03/12 02:30:26;;;;;;;6.38;3.00;;;1.10;99.90;;;;;;4993678;28;19925;-50
2023/03/12 02:32:53;;;;;;;9.75;3.63;;;1.10;99.90;;;;;;4993963;28;20034;-48
2023/03/12 02:35:19;;;;;;;7.68;3.55;;;1.20;99.90;;;;;;4993312;28;20065;-49
2023/03/12 02:37:54;;;;;;;7.50;3.50;;;1.20;99.90;;;;;;4994093;28;20035;-47
2023/03/12 02:40:40;;;;;;;8.35;3.85;;;1.20;99.90;;;;;;4991443;28;20038;-47
2023/03/12 02:43:08;;;;;;;7.78;3.08;;;1.20;99.90;;;;;;4992772;28;20041;-47
2023/03/12 02:45:35;;;;;;;7.32;3.22;;;1.10;99.90;;;;;;4990454;28;20117;-47
2023/03/12 02:48:03;;;;;;;6.57;3.15;;;1.20;99.90;;;;;;4993861;28;20421;-49
2023/03/12 02:50:28;;;;;;;9.50;3.30;;;1.10;99.90;;;;;;4994047;28;20488;-47
2023/03/12 02:52:54;;;;;;;5.47;2.95;;;1.10;99.90;;;;;;4993406;28;20031;-47
2023/03/12 02:55:20;;;;;;;6.95;3.03;;;1.10;99.90;;;;;;4993662;28;20193;-48
2023/03/12 02:57:45;;;;;;;10.23;3.75;;;1.10;99.90;;;;;;4992604;28;20069;-48
2023/03/12 03:00:13;;;;;;;6.78;3.10;;;1.10;99.90;;;;;;4993391;28;20034;-47
2023/03/12 03:02:42;;;;;;;9.50;3.17;;;1.10;99.90;;;;;;4993253;28;20466;-47
2023/03/12 03:05:10;;;;;;;7.35;3.60;;;1.10;99.90;;;;;;4992140;28;20084;-48
2023/03/12 03:07:35;;;;;;;7.25;3.30;;;1.20;99.90;;;;;;4993029;28;20555;-49
2023/03/12 03:10:03;;;;;;;10.68;3.63;;;1.10;99.90;;;;;;4993281;28;20046;-50
2023/03/12 03:12:33;;;;;;;8.60;3.83;;;1.10;99.90;;;;;;4993210;28;20478;-49
2023/03/12 03:14:59;;;;;;;6.72;2.78;;;1.20;99.90;;;;;;4993076;28;20048;-46
2023/03/12 03:17:25;;;;;;;8.02;3.90;;;1.10;99.90;;;;;;4991948;28;20486;-46
2023/03/12 03:19:51;;;;;;;5.88;2.92;;;1.10;99.90;;;;;;4992940;28;20038;-50
2023/03/12 03:22:18;;;;;;;11.90;3.40;;;1.10;99.90;;;;;;4992911;28;20125;-48
2023/03/12 03:24:44;;;;;;;9.07;3.33;;;1.10;99.90;;;;;;4993411;28;20489;-46
2023/03/12 03:27:11;;;;;;;8.98;3.05;;;1.10;99.90;;;;;;4992652;28;20045;-46
2023/03/12 03:29:37;;;;;;;12.65;3.67;;;1.10;99.90;;;;;;4992556;28;20034;-51
2023/03/12 03:32:03;;;;;;;10.55;3.17;;;1.10;99.90;;;;;;4992880;28;20104;-47
2023/03/12 03:34:28;;;;;;;9.57;3.40;;;1.10;99.90;;;;;;4992160;28;20445;-47
2023/03/12 03:36:54;;;;;;;8.38;3.25;;;1.10;99.90;;;;;;4993561;28;20030;-46
2023/03/12 03:39:20;;;;;;;7.25;3.22;;;1.10;99.90;;;;;;4992887;28;20034;-47
2023/03/12 03:41:46;;;;;;;6.68;3.45;;;1.10;99.90;;;;;;4992883;28;20386;-48
2023/03/12 03:44:12;;;;;;;6.82;2.70;;;1.10;99.90;;;;;;4992382;28;20034;-51
2023/03/12 03:46:38;;;;;;;8.10;3.65;;;1.10;99.90;;;;;;4992339;28;20046;-50
2023/03/12 03:49:04;;;;;;;7.95;3.05;;;1.10;99.90;;;;;;4976715;28;20046;-50
2023/03/12 03:51:30;;;;;;;9.10;3.50;;;1.10;99.90;;;;;;4990011;28;20044;-50
2023/03/12 03:53:59;;;;;;;7.70;3.58;;;1.40;99.90;;;;;;4992568;28;20133;-47
2023/03/12 03:56:24;;;;;;;6.25;3.33;;;1.10;99.90;;;;;;4992395;28;20524;-48
2023/03/12 03:58:50;;;;;;;7.90;3.47;;;1.10;99.90;;;;;;4992377;28;20042;-48
2023/03/12 04:01:16;;;;;;;8.65;3.55;;;1.10;99.90;;;;;;4990987;28;20038;-50
2023/03/12 04:03:42;;;;;;;9.43;3.78;;;1.10;99.90;;;;;;4992098;28;20415;-48
2023/03/12 04:06:08;;;;;;;11.32;3.75;;;1.10;99.90;;;;;;4992437;28;20038;-49
2023/03/12 04:08:36;;;;;;;6.32;3.47;;;1.20;99.90;;;;;;4991174;28;20054;-47
2023/03/12 04:11:16;;;;;;;9.18;3.78;;;1.20;99.90;;;;;;4992359;28;20046;-49
2023/03/12 04:13:42;;;;;;;11.10;3.90;;;1.20;99.90;;;;;;4992311;28;20042;-48
2023/03/12 04:16:09;;;;;;;14.98;4.03;;;1.20;99.90;;;;;;4991690;28;20038;-48
2023/03/12 04:18:35;;;;;;;11.07;3.78;;;1.20;99.90;;;;;;4992069;28;20054;-47
2023/03/12 04:21:02;;;;;;;10.27;4.25;;;1.20;99.90;;;;;;4992173;28;20042;-50
2023/03/12 04:23:28;;;;;;;10.52;3.90;;;1.20;99.90;;;;;;4991524;28;20054;-51
2023/03/12 04:25:54;;;;;;;12.57;4.25;;;1.20;99.90;;;;;;4991912;28;20046;-46
2023/03/12 04:28:19;;;;;;;8.15;4.18;;;1.20;99.90;;;;;;4991517;28;20471;-47
2023/03/12 04:31:00;;;;;;;12.30;4.07;;;1.20;99.90;;;;;;4992085;28;20046;-48
2023/03/12 04:33:31;;;;;;;7.60;3.75;;;0.40;99.90;;;;;;4990318;28;20050;-49
2023/03/12 04:35:57;;;;;;;9.23;3.60;;;1.20;99.90;;;;;;4991928;28;20046;-48
2023/03/12 04:38:24;;;;;;;11.60;4.15;;;1.20;99.90;;;;;;4991759;28;20089;-47
2023/03/12 04:41:01;;;;;;;9.82;3.45;;;1.20;99.90;;;;;;4990217;28;20046;-47
2023/03/12 04:43:28;;;;;;;7.57;3.60;;;1.20;99.90;;;;;;4991283;28;20042;-46
2023/03/12 04:45:54;;;;;;;7.50;3.25;;;1.30;99.90;;;;;;4991401;28;20545;-46
2023/03/12 04:48:20;;;;;;;11.10;3.97;;;1.30;99.90;;;;;;4992088;28;20459;-49
2023/03/12 04:50:45;;;;;;;9.15;3.63;;;1.30;99.90;;;;;;4991907;28;20045;-48
2023/03/12 04:53:11;;;;;;;7.88;4.03;;;1.30;99.90;;;;;;4991250;28;20097;-49
2023/03/12 04:55:37;;;;;;;7.80;3.30;;;1.30;99.90;;;;;;4991295;28;20485;-48
2023/03/12 04:58:02;;;;;;;8.75;3.60;;;1.30;99.90;;;;;;4991550;28;20045;-48
2023/03/12 05:00:28;;;;;;;9.85;3.60;;;1.80;99.90;;;;;;4991454;28;20045;-47
2023/03/12 05:02:54;;;;;;;9.35;3.42;;;1.30;99.90;;;;;;4991177;28;20048;-47
2023/03/12 05:05:20;;;;;;;9.85;3.28;;;1.30;99.90;;;;;;4991310;28;20038;-47
2023/03/12 05:07:45;;;;;;;6.68;3.55;;;1.30;99.90;;;;;;4991166;28;20385;-48
2023/03/12 05:10:11;;;;;;;10.52;3.67;;;1.30;99.90;;;;;;4991150;28;20068;-49
2023/03/12 05:12:37;;;;;;;9.27;3.53;;;1.30;99.90;;;;;;4990035;28;20553;-48
2023/03/12 05:15:03;;;;;;;10.93;4.18;;;2.80;99.90;;;;;;4988759;28;20042;-48
2023/03/12 05:17:28;;;;;;;8.38;3.92;;;1.40;99.90;;;;;;4990278;28;20046;-47
2023/03/12 05:19:54;;;;;;;9.25;3.30;;;1.40;99.90;;;;;;4988156;28;20044;-48
2023/03/12 05:22:20;;;;;;;9.43;3.92;;;1.40;99.90;;;;;;4991828;28;20382;-46
2023/03/12 05:24:45;;;;;;;8.60;3.80;;;1.40;99.90;;;;;;4991228;28;20058;-48
2023/03/12 05:27:11;;;;;;;10.00;3.38;;;1.40;99.90;;;;;;4991226;28;20038;-49
2023/03/12 05:29:37;;;;;;;11.48;3.83;;;1.30;99.90;;;;;;4990661;28;20474;-50
2023/03/12 05:32:03;;;;;;;9.55;4.00;;;1.40;99.90;;;;;;4991188;28;20045;-47
2023/03/12 05:34:30;;;;;;;6.63;3.30;;;1.40;99.90;;;;;;4988942;28;20046;-49
2023/03/12 05:36:56;;;;;;;8.35;3.70;;;1.40;99.90;;;;;;4973737;28;20070;-48
2023/03/12 05:39:23;;;;;;;10.98;3.85;;;1.40;99.90;;;;;;4991414;28;20045;-48
2023/03/12 05:41:48;;;;;;;8.73;3.55;;;1.40;99.90;;;;;;4990672;28;20096;-49
2023/03/12 05:44:14;;;;;;;8.45;4.20;;;1.40;99.90;;;;;;4990766;28;20430;-44
2023/03/12 05:46:41;;;;;;;8.00;3.80;;;1.40;99.90;;;;;;4990095;28;20080;-49
2023/03/12 05:49:08;;;;;;;8.93;4.13;;;1.40;99.90;;;;;;4990135;28;20057;-48
2023/03/12 05:51:34;;;;;;;10.82;3.92;;;1.40;99.90;;;;;;4991234;28;20474;-49
2023/03/12 05:54:00;;;;;;;12.20;4.00;;;1.40;99.90;;;;;;4991656;28;20394;-48
2023/03/12 05:56:26;;;;;;;9.68;3.78;;;1.50;99.90;;;;;;4991060;28;20074;-45
2023/03/12 05:58:52;;;;;;;10.70;4.15;;;1.50;99.90;;;;;;4990364;28;20108;-47
2023/03/12 06:01:28;;;;;;;10.02;3.95;;;1.50;99.90;;;;;;4989214;28;20054;-49
2023/03/12 06:03:54;;;;;;;10.40;3.97;;;1.50;99.90;;;;;;4988012;28;20056;-47
2023/03/12 06:06:20;;;;;;;10.38;3.92;;;1.50;99.90;;;;;;4988175;28;20042;-49
2023/03/12 06:08:46;;;;;;;11.43;4.53;;;1.50;99.90;;;;;;4990150;28;20050;-47
2023/03/12 06:11:12;;;;;;;9.90;4.10;;;1.50;99.90;;;;;;4990604;28;20038;-49
2023/03/12 06:13:38;;;;;;;8.88;4.43;;;1.60;99.90;;;;;;4989147;28;20516;-46
2023/03/12 06:16:08;;;;;;;12.23;4.38;;;1.60;99.90;;;;;;4989583;28;20474;-47
2023/03/12 06:18:34;;;;;;;9.20;4.50;;;1.60;99.90;;;;;;4991124;28;20046;-51
2023/03/12 06:21:08;;;;;;;11.30;4.25;;;1.60;99.90;;;;;;4989760;28;20039;-44
2023/03/12 06:23:33;;;;;;;10.07;4.33;;;1.60;99.90;;;;;;4990109;28;20078;-49
2023/03/12 06:25:59;;;;;;;9.15;3.90;;;1.60;99.90;;;;;;4990299;28;20281;-50
2023/03/12 06:28:25;;;;;;;11.18;4.47;;;1.60;99.90;;;;;;4990367;28;20042;-45
2023/03/12 06:30:52;;;;;;;10.50;3.97;;;1.60;99.90;;;;;;4990276;28;20046;-47
2023/03/12 06:33:18;;;;;;;8.13;4.00;;;1.70;99.90;;;;;;4990075;28;20131;-46
2023/03/12 06:35:44;;;;;;;10.65;4.30;;;1.60;99.90;;;;;;4989959;28;20082;-47
2023/03/12 06:38:10;;;;;;;12.75;4.60;;;1.70;99.90;;;;;;4990264;28;20038;-48
2023/03/12 06:40:36;;;;;;;11.57;5.20;;;1.70;99.90;;;;;;4990536;28;20038;-46
2023/03/12 06:43:02;;;;;;;8.57;4.78;;;1.70;99.90;;;;;;4990117;28;20504;-48
2023/03/12 06:45:28;;;;;;;9.00;4.70;;;1.60;99.90;;;;;;4989652;28;20530;-46
2023/03/12 06:47:53;;;;;;;9.98;4.65;;;1.60;99.90;;;;;;4988473;28;20509;-47
2023/03/12 06:50:19;;;;;;;14.60;5.03;;;1.60;99.90;;;;;;4989799;28;20043;-47
2023/03/12 06:52:45;;;;;;;12.68;4.97;;;1.60;99.90;;;;;;4989955;28;20038;-48
2023/03/12 06:55:10;;;;;;;8.52;4.38;;;1.60;99.90;;;;;;4993764;28;20044;-48
2023/03/12 06:57:36;;;;;;;10.77;4.68;;;1.50;99.90;;;;;;4993681;28;20085;-48
2023/03/12 07:00:03;;;;;;;11.57;4.88;;;1.60;99.90;;;;;;4992455;28;20089;-46
2023/03/12 07:02:29;;;;;;;9.77;4.82;;;1.60;99.90;;;;;;4994192;28;20050;-48
2023/03/12 07:04:55;;;;;;;9.52;4.45;;;2.00;99.90;;;;;;4994197;28;20038;-49
2023/03/12 07:07:21;;;;;;;9.82;4.60;;;1.60;99.90;;;;;;4993631;28;20027;-50
2023/03/12 07:09:47;;;;;;;12.15;4.70;;;1.60;99.90;;;;;;4993569;28;20036;-46
2023/03/12 07:12:12;;;;;;;9.32;4.68;;;1.50;99.90;;;;;;4991962;28;20401;-49
2023/03/12 07:14:38;;;;;;;10.50;5.13;;;1.70;99.90;;;;;;4991746;28;20101;-46
2023/03/12 07:17:04;;;;;;;11.98;4.50;;;1.50;99.90;;;;;;4993140;28;20097;-48
2023/03/12 07:19:29;;;;;;;10.73;5.28;;;1.50;99.90;;;;;;4991599;28;20129;-47
2023/03/12 07:21:55;;;;;;;13.20;5.38;;;1.50;99.90;;;;;;4993020;28;20035;-46
2023/03/12 07:24:21;;;;;;;10.55;4.97;;;1.50;99.90;;;;;;4990342;28;20129;-48
2023/03/12 07:26:47;;;;;;;7.03;4.22;;;1.50;99.90;;;;;;4985353;28;20121;-50
2023/03/12 07:29:12;;;;;;;9.32;5.03;;;1.50;99.90;;;;;;4984653;28;20139;-50
2023/03/12 07:31:38;;;;;;;10.88;5.85;;;1.50;99.90;;;;;;4983776;28;20066;-48
2023/03/12 07:34:04;;;;;;;10.57;5.38;;;1.50;99.90;;;;;;4980580;28;20517;-47
2023/03/12 07:36:31;;;;;;;12.48;5.70;;;1.50;99.90;;;;;;4982413;28;20050;-45
2023/03/12 07:38:57;;;;;;;11.50;5.88;;;1.50;99.90;;;;;;4984026;28;20494;-46
2023/03/12 07:41:22;;;;;;;11.25;5.57;;;1.50;99.90;;;;;;4967892;28;20088;-48
2023/03/12 07:43:48;;;;;;;9.00;5.20;;;1.40;99.90;;;;;;4983962;28;20117;-49
2023/03/12 07:46:14;;;;;;;9.57;5.20;;;2.80;99.90;;;;;;4982488;28;20105;-47
2023/03/12 07:48:40;;;;;;;10.80;5.25;;;1.50;99.90;;;;;;4983033;28;20038;-48
2023/03/12 07:51:06;;;;;;;12.73;5.32;;;1.50;99.90;;;;;;4982790;28;20060;-47
2023/03/12 07:53:31;;;;;;;11.10;5.70;;;1.50;99.90;;;;;;4982433;28;20090;-48
2023/03/12 07:55:57;;;;;;;10.20;5.82;;;1.60;99.90;;;;;;4983406;28;20051;-47
2023/03/12 07:58:23;;;;;;;12.85;5.93;;;1.60;99.90;;;;;;4981239;28;20072;-48
2023/03/12 08:00:49;;;;;;;13.02;6.25;;;1.60;99.90;;;;;;4983036;28;20371;-47
2023/03/12 08:03:15;;;;;;;13.65;6.30;;;1.60;99.90;;;;;;4980560;28;20034;-45
2023/03/12 08:05:42;;;;;;;14.88;5.72;;;1.70;99.90;;;;;;4980537;28;20037;-47
2023/03/12 08:08:07;;;;;;;9.95;5.55;;;1.70;99.90;;;;;;4982387;28;20074;-48
2023/03/12 08:10:33;;;;;;;12.52;6.00;;;1.70;99.90;;;;;;4981095;28;20089;-49
2023/03/12 08:12:59;;;;;;;12.57;5.63;;;1.70;99.90;;;;;;4983322;28;20042;-49
2023/03/12 08:15:25;;;;;;;12.50;6.10;;;1.70;99.90;;;;;;4989792;28;20040;-48
2023/03/12 08:17:50;;;;;;;14.57;6.30;;;1.70;99.90;;;;;;4990559;28;20085;-52
2023/03/12 08:20:16;;;;;;;15.15;6.32;;;1.80;99.90;;;;;;4990263;28;20038;-49
2023/03/12 08:22:42;;;;;;;11.88;5.78;;;1.70;99.90;;;;;;4990322;28;20050;-47
2023/03/12 08:25:09;;;;;;;13.90;5.93;;;1.80;99.90;;;;;;4991572;28;20050;-47
2023/03/12 08:27:35;;;;;;;13.25;5.80;;;2.30;99.90;;;;;;4991063;28;20034;-50
2023/03/12 08:30:01;;;;;;;13.85;6.28;;;1.90;99.90;;;;;;4991316;28;20038;-48
2023/03/12 08:32:26;;;;;;;13.85;6.47;;;1.80;99.90;;;;;;4991844;28;20478;-47
2023/03/12 08:34:52;;;;;;;13.35;6.57;;;1.80;99.90;;;;;;4992088;28;20038;-49
2023/03/12 08:37:18;;;;;;;15.27;6.18;;;1.80;99.90;;;;;;4990801;28;20080;-46
2023/03/12 08:39:43;;;;;;;14.75;7.22;;;1.90;99.90;;;;;;4991528;28;20053;-48
2023/03/12 08:42:09;;;;;;;15.25;7.03;;;1.90;99.90;;;;;;4991881;28;20484;-48
2023/03/12 08:44:35;;;;;;;12.75;6.50;;;1.90;99.90;;;;;;4991715;28;20485;-46
2023/03/12 08:47:00;;;;;;;13.05;5.90;;;2.20;99.90;;;;;;4989617;28;20042;-48
2023/03/12 08:49:26;;;;;;;12.52;6.63;;;1.90;99.90;;;;;;4991854;28;20030;-48
2023/03/12 08:51:52;;;;;;;10.85;6.00;;;2.00;99.90;;;;;;4991388;28;20042;-48
2023/03/12 08:54:19;;;;;;;17.38;7.05;;;2.20;99.90;;;;;;4991601;28;20493;-48
2023/03/12 08:56:52;;;;;;;18.45;8.38;;;2.20;99.90;;;;;;4991105;28;20050;-51
2023/03/12 08:59:19;;;;;;;17.80;7.25;;;2.10;99.90;;;;;;4991075;28;20067;-50
2023/03/12 09:01:45;;;;;;;16.20;7.65;;;2.20;99.90;;;;;;4990207;28;20038;-48
2023/03/12 09:04:11;;;;;;;18.95;8.35;;;2.30;99.90;;;;;;4988971;28;20026;-48
2023/03/12 09:06:37;;;;;;;14.27;7.95;;;2.30;99.90;;;;;;4989377;28;20041;-48
2023/03/12 09:09:03;;;;;;;13.68;8.55;;;2.30;99.90;;;;;;4990051;28;20478;-47
2023/03/12 09:11:31;;;;;;;22.48;9.05;;;2.40;99.90;;;;;;4990402;28;20097;-45
2023/03/12 09:13:57;;;;;;;17.63;9.15;;;2.50;99.90;;;;;;4990583;28;20081;-49
2023/03/12 09:16:23;;;;;;;16.70;8.77;;;2.20;99.90;;;;;;4987564;28;20042;-48
2023/03/12 09:18:48;;;;;;;15.30;9.35;;;3.10;99.90;;;;;;4990229;28;20549;-47
2023/03/12 09:21:14;;;;;;;14.43;8.50;;;2.20;99.90;;;;;;4972169;28;20046;-47
2023/03/12 09:23:40;;;;;;;16.45;8.93;;;2.20;99.90;;;;;;4990726;28;20358;-50
2023/03/12 09:26:09;;;;;;;15.85;9.15;;;2.90;99.90;;;;;;4989896;28;20113;-49
2023/03/12 09:28:35;;;;;;;20.50;9.73;;;2.50;99.90;;;;;;4988658;28;20069;-47
2023/03/12 09:31:02;;;;;;;15.43;9.43;;;2.20;99.90;;;;;;4989447;28;20038;-46
2023/03/12 09:33:27;;;;;;;16.20;10.52;;;2.60;99.90;;;;;;4990505;28;20446;-46
2023/03/12 09:35:58;;;;;;;19.05;10.00;;;2.30;99.90;;;;;;4988902;28;20129;-49
2023/03/12 09:38:24;;;;;;;18.25;10.77;;;2.30;99.90;;;;;;4990518;28;20069;-47
2023/03/12 09:40:51;;;;;;;21.05;11.88;;;2.60;99.90;;;;;;4989693;28;20394;-48
2023/03/12 09:43:35;;;;;;;18.25;11.63;;;2.60;99.90;;;;;;4989605;28;20041;-47
2023/03/12 09:46:02;;;;;;;16.95;9.80;;;2.40;99.90;;;;;;4988313;28;20072;-47
2023/03/12 09:48:34;;;;;;;19.42;11.55;;;2.70;99.90;;;;;;4990486;28;20050;-47
2023/03/12 09:51:18;;;;;;;22.95;10.90;;;2.60;99.90;;;;;;4990782;28;20046;-47
2023/03/12 09:53:53;;;;;;;25.83;11.75;;;2.80;99.90;;;;;;4989381;28;20050;-48
2023/03/12 09:56:21;;;;;;;20.83;11.73;;;2.60;99.90;;;;;;4988804;28;20045;-47
2023/03/12 09:58:49;;;;;;;20.17;11.70;;;2.50;99.90;;;;;;4989246;28;20051;-46
2023/03/12 10:01:40;;;;;;;22.60;13.27;;;2.70;99.90;;;;;;4988502;28;20555;-47
2023/03/12 10:04:11;;;;;;;22.70;12.02;;;2.80;99.90;;;;;;4989668;28;20124;-47
2023/03/12 10:07:04;;;;;;;21.20;11.70;;;2.80;99.90;;;;;;4989735;28;20039;-48
2023/03/12 10:09:40;;;;;;;20.77;12.63;;;2.80;99.90;;;;;;4989048;28;20390;-47
2023/03/12 10:12:49;;;;;;;23.35;12.68;;;3.00;99.90;;;;;;4988432;28;20066;-47
2023/03/12 10:15:52;;;;;;;26.73;13.63;;;3.00;99.90;;;;;;4990147;28;20100;-46
2023/03/12 10:18:50;;;;;;;20.45;11.60;;;3.20;99.90;;;;;;4990152;28;20461;-50
2023/03/12 10:22:08;;;;;;;25.38;13.32;;;3.10;99.90;;;;;;4983444;28;20042;-48
2023/03/12 10:24:58;;;;;;;25.45;13.88;;;3.10;99.90;;;;;;4967796;28;20054;-47
2023/03/12 10:27:29;;;;;;;23.58;12.68;;;3.40;99.90;;;;;;4968861;28;20051;-48
2023/03/12 10:29:56;;;;;;;24.17;13.77;;;3.70;99.90;;;;;;4986121;28;20054;-50
2023/03/12 10:32:45;;;;;;;25.90;12.68;;;3.20;99.90;;;;;;4993437;28;20487;-49
2023/03/12 10:35:20;;;;;;;29.70;14.38;;;3.50;99.90;;;;;;4993214;28;20034;-48
2023/03/12 10:37:56;;;;;;;27.13;14.02;;;3.70;99.90;;;;;;4993242;28;20474;-49
2023/03/12 10:40:25;;;;;;;32.35;14.88;;;3.90;99.90;;;;;;4992332;28;20541;-48
2023/03/12 10:42:51;;;;;;;31.30;15.27;;;3.80;99.90;;;;;;4991617;28;20433;-46
2023/03/12 10:45:54;;;;;;;33.72;15.50;;;3.70;99.90;;;;;;4993428;28;20066;-47
2023/03/12 10:48:23;;;;;;;28.25;15.07;;;4.00;99.90;;;;;;4992646;28;20038;-47
2023/03/12 10:51:04;;;;;;;29.23;14.52;;;3.60;99.90;;;;;;4990774;28;20038;-47
2023/03/12 10:53:43;;;;;;;26.77;15.20;;;4.00;99.90;;;;;;4992581;28;20050;-48
2023/03/12 10:56:17;;;;;;;28.73;15.82;;;3.80;99.90;;;;;;4992493;28;20053;-52
2023/03/12 10:58:46;;;;;;;34.85;17.10;;;3.90;99.90;;;;;;4993191;28;20065;-48
2023/03/12 11:01:20;;;;;;;27.88;17.15;;;3.80;99.90;;;;;;4992635;28;20038;-48
2023/03/12 11:03:45;;;;;;;40.07;19.53;;;3.90;99.90;;;;;;4993734;28;20366;-50
2023/03/12 11:06:24;;;;;;;40.30;18.90;;;4.40;99.90;;;;;;4991688;28;20281;-47
2023/03/12 11:09:25;;;;;;;43.28;19.10;;;4.10;99.90;;;;;;4990169;28;20043;-50
2023/03/12 11:11:51;;;;;;;48.13;20.73;;;4.50;99.90;;;;;;4952051;29;20043;-47
2023/03/12 11:14:20;;;;;;;52.10;22.42;;;4.60;99.90;;;;;;4964207;28;20137;-50
2023/03/12 11:16:46;;;;;;;50.63;24.67;;;4.90;99.90;;;;;;4991682;28;20053;-47
2023/03/12 11:19:14;;;;;;;65.32;26.90;;;4.80;99.90;;;;;;4992322;28;20034;-48
2023/03/12 11:21:58;;;;;;;70.28;30.77;;;5.10;99.90;;;;;;4990174;28;20050;-48
2023/03/12 11:24:23;;;;;;;72.25;30.42;;;5.10;99.90;;;;;;4992323;28;20054;-47
2023/03/12 11:27:02;;;;;;;77.75;30.23;;;5.30;99.90;;;;;;4991362;28;20037;-47
2023/03/12 11:29:31;;;;;;;68.53;27.60;;;5.20;99.90;;;;;;4991909;28;20046;-46
2023/03/12 11:32:17;;;;;;;71.85;28.13;;;5.60;99.90;;;;;;4992525;28;20061;-49
2023/03/12 11:34:49;;;;;;;66.07;28.40;;;5.30;99.90;;;;;;4992102;28;20403;-51
2023/03/12 11:37:26;;;;;;;63.78;28.75;;;5.50;99.90;;;;;;4992079;28;20482;-49
2023/03/12 11:40:05;;;;;;;81.63;31.13;;;5.90;99.90;;;;;;4990534;28;20097;-47
2023/03/12 11:43:08;;;;;;;72.07;28.20;;;5.60;99.90;;;;;;4991175;28;20098;-48
2023/03/12 11:45:44;;;;;;;78.85;30.17;;;6.10;99.90;;;;;;4991933;28;20046;-49
2023/03/12 11:49:05;;;;;;;66.32;27.88;;;5.90;99.90;;;;;;4990854;28;20046;-50
2023/03/12 11:51:54;;;;;;;83.22;30.10;;;5.80;99.90;;;;;;4954269;28;20198;-48
2023/03/12 11:54:31;;;;;;;81.80;28.95;;;5.70;99.90;;;;;;4988502;28;20112;-48
2023/03/12 11:57:09;;;;;;;72.35;30.55;;;6.30;99.90;;;;;;4992381;28;20557;-46
2023/03/12 12:00:11;;;;;;;62.67;30.40;;;5.90;99.90;;;;;;4991024;28;20049;-49
2023/03/12 12:03:03;;;;;;;75.60;29.95;;;6.10;99.90;;;;;;4990267;28;20047;-48
2023/03/12 12:05:57;;;;;;;71.28;30.02;;;6.00;99.90;;;;;;4992399;28;20548;-49
2023/03/12 12:08:47;;;;;;;60.92;29.05;;;6.00;99.90;;;;;;4991182;28;20080;-46
2023/03/12 12:11:27;;;;;;;74.97;32.60;;;6.60;99.90;;;;;;4992363;28;20038;-49
2023/03/12 12:13:55;;;;;;;76.47;31.98;;;6.70;99.90;;;;;;4992420;28;20492;-48
2023/03/12 12:16:36;;;;;;;85.57;31.75;;;6.50;99.90;;;;;;4991831;28;20046;-50
2023/03/12 12:19:32;;;;;;;92.13;31.90;;;6.70;99.90;;;;;;4991711;28;20050;-50
2023/03/12 12:22:27;;;;;;;86.97;34.85;;;6.70;99.90;;;;;;4990556;28;20042;-50
2023/03/12 12:25:04;;;;;;;79.38;33.40;;;6.40;99.90;;;;;;4988908;28;20050;-47
2023/03/12 12:27:45;;;;;;;72.55;32.15;;;6.90;99.90;;;;;;4984780;28;20405;-50
2023/03/12 12:30:32;;;;;;;80.70;32.70;;;6.80;99.90;;;;;;4988988;28;20041;-49
2023/03/12 12:33:23;;;;;;;91.25;36.00;;;6.50;99.90;;;;;;4988301;28;20038;-48
2023/03/12 12:35:49;;;;;;;84.30;35.22;;;6.80;99.90;;;;;;4985475;28;20042;-49
2023/03/12 12:38:34;;;;;;;100.53;35.63;;;6.70;99.90;;;;;;4984268;28;20482;-47
2023/03/12 12:41:08;;;;;;;87.95;33.72;;;6.60;99.90;;;;;;4988368;28;20030;-51
2023/03/12 12:43:48;;;;;;;79.57;31.70;;;6.70;99.90;;;;;;4987377;28;20042;-51
2023/03/12 12:46:16;;;;;;;77.90;32.00;;;7.20;99.90;;;;;;4985332;28;20149;-47
2023/03/12 12:48:51;;;;;;;89.97;35.33;;;6.90;99.90;;;;;;4982115;28;20042;-50
2023/03/12 12:51:20;;;;;;;88.75;34.30;;;7.60;99.90;;;;;;4987855;28;20053;-50
2023/03/12 12:53:58;;;;;;;77.57;32.90;;;7.20;99.90;;;;;;4985687;28;20573;-48
2023/03/12 12:56:40;;;;;;;92.32;34.10;;;7.30;99.90;;;;;;4989330;28;20042;-51
2023/03/12 12:59:30;;;;;;;83.32;31.70;;;7.20;99.90;;;;;;4991455;28;20042;-50
2023/03/12 13:01:58;;;;;;;75.57;31.55;;;7.00;99.90;;;;;;4990308;28;20042;-50
2023/03/12 13:04:30;;;;;;;61.47;28.88;;;7.20;99.90;;;;;;4990953;28;20394;-49